Impacts TAF Board
For situational awareness. Not to be used for flight planning purposes.
IDs:

KCSG - Columbus Arpt, GA, US

Issued at 1140 UTC 20 May 2022
Updated at 1704 UTC 20 May 2022
Potential Impact None Slight Moderate High
Time<<21/18Z 21/19Z 21/20Z 21/21Z 21/22Z 21/23Z 22/00Z 22/01Z 22/02Z 22/03Z 22/04Z 22/05Z 22/06Z
Type
VIS
CIG
Cover
FltCat
WX
WDir
WSpd
WGst
WSHgt
WSDir
WSSpd
Raw TAF
KCSG 201140Z 2012/2112 23007KT P6SM OVC007
  FM201400 21008KT P6SM SCT030 BKN250
  FM201600 20010G20KT P6SM BKN050
  FM210200 19006KT P6SM SCT250
  FM210900 19003KT P6SM SCT007 BKN015


METAR Board
Radar Display
Forecast Discussion
For situational awareness. Not to be used for flight planning purposes.